Time;durP1;ratioP1;P1;durP2;ratioP2;P2;SDS_P1;SDS_P2;PMS_P1;PMS_P2;Temp;Humidity;BMP_temperature;BMP_pressure;BME280_temperature;BME280_humidity;BME280_pressure;Samples;Min_cycle;Max_cycle;Signal;HPM_P1;HPM_P2
2021/12/17 00:00:17;;;;;;;24.63;15.93;;;7.30;99.90;;;;;;4985695;28;20407;-80
2021/12/17 00:03:12;;;;;;;20.43;13.33;;;7.20;99.90;;;;;;4949825;29;20381;-80
2021/12/17 00:09:02;;;;;;;23.07;15.43;;;7.40;99.90;;;;;;4927700;29;20939;-80
2021/12/17 00:11:46;;;;;;;24.90;13.90;;;7.40;99.90;;;;;;4927191;29;20415;-80
2021/12/17 00:14:37;;;;;;;24.90;16.97;;;7.50;99.90;;;;;;4966143;29;20402;-79
2021/12/17 00:17:27;;;;;;;22.17;15.77;;;7.50;99.90;;;;;;4954653;29;20593;-80
2021/12/17 00:20:40;;;;;;;22.40;15.60;;;7.50;99.90;;;;;;4953527;29;20435;-80
2021/12/17 00:50:42;;;;;;;29.27;17.67;;;7.90;99.90;;;;;;4980671;28;20395;-80
2021/12/17 00:53:29;;;;;;;40.23;18.10;;;7.90;99.90;;;;;;4993362;28;20836;-79
2021/12/17 00:56:14;;;;;;;44.17;17.10;;;7.90;99.90;;;;;;4986399;28;20460;-80
2021/12/17 00:58:58;;;;;;;38.13;20.10;;;7.90;99.90;;;;;;4973617;28;20392;-80
2021/12/17 01:01:44;;;;;;;41.03;21.57;;;7.80;99.90;;;;;;4985586;28;20404;-79
2021/12/17 01:04:28;;;;;;;31.33;20.00;;;7.80;99.90;;;;;;4970651;29;20429;-79
2021/12/17 01:07:13;;;;;;;34.57;18.63;;;7.80;99.90;;;;;;4959232;29;21044;-80
2021/12/17 01:10:00;;;;;;;50.60;19.97;;;7.70;99.90;;;;;;4970718;28;20397;-79
2021/12/17 01:12:45;;;;;;;43.23;19.23;;;7.80;99.90;;;;;;4939620;29;20357;-80
2021/12/17 01:15:33;;;;;;;30.73;18.30;;;7.80;99.90;;;;;;4929507;28;20480;-80
2021/12/17 01:18:24;;;;;;;37.50;18.97;;;7.80;99.90;;;;;;4942925;29;20432;-80
2021/12/17 01:24:15;;;;;;;28.53;16.63;;;7.70;99.90;;;;;;4942986;29;20807;-80
2021/12/17 01:36:14;;;;;;;33.93;19.57;;;7.70;99.90;;;;;;4949445;29;20443;-80
2021/12/17 01:40:02;;;;;;;24.97;15.00;;;7.50;99.90;;;;;;4945846;29;20396;-80
2021/12/17 01:42:06;;;;;;;32.60;17.80;;;7.40;99.90;;;;;;4989227;28;20420;-79
2021/12/17 01:44:52;;;;;;;36.80;15.90;;;7.40;99.90;;;;;;4987167;28;20467;-80
2021/12/17 01:47:39;;;;;;;29.80;14.80;;;7.50;99.90;;;;;;5048942;28;20430;-79
2021/12/17 01:56:49;;;;;;;38.80;14.60;;;7.50;99.90;;;;;;5002148;28;20421;-79
2021/12/17 01:59:38;;;;;;;22.33;13.30;;;7.20;99.90;;;;;;5020676;28;20386;-79
2021/12/17 02:02:23;;;;;;;24.77;12.67;;;6.90;99.90;;;;;;4974327;28;20398;-79
2021/12/17 02:05:09;;;;;;;40.40;13.73;;;6.70;99.90;;;;;;4987788;28;20437;-79
2021/12/17 02:07:58;;;;;;;27.60;15.23;;;6.40;99.90;;;;;;4973475;28;20455;-79
2021/12/17 02:11:20;;;;;;;22.73;14.30;;;6.30;99.90;;;;;;4981830;28;20403;-79
2021/12/17 02:28:58;;;;;;;25.07;13.43;;;6.10;99.90;;;;;;5028341;28;20454;-79
2021/12/17 02:31:44;;;;;;;37.93;16.57;;;6.20;99.90;;;;;;5014895;28;20411;-79
2021/12/17 02:35:03;;;;;;;22.97;12.63;;;6.20;99.90;;;;;;5027939;28;20780;-79
2021/12/17 02:37:46;;;;;;;30.63;14.30;;;6.20;99.90;;;;;;5036281;28;20965;-79
2021/12/17 02:46:51;;;;;;;34.87;15.37;;;6.50;99.90;;;;;;4971888;28;20540;-79
2021/12/17 02:49:37;;;;;;;27.70;14.20;;;6.20;99.90;;;;;;4955562;28;20397;-79
2021/12/17 02:52:27;;;;;;;44.90;16.17;;;6.20;99.90;;;;;;4924158;29;20823;-79
2021/12/17 02:55:13;;;;;;;20.90;12.53;;;6.40;99.90;;;;;;4924268;29;20415;-79
2021/12/17 02:57:58;;;;;;;27.00;14.07;;;6.30;99.90;;;;;;4930557;29;20398;-79
2021/12/17 03:00:45;;;;;;;20.03;11.07;;;6.20;99.90;;;;;;4942606;29;20425;-79
2021/12/17 03:03:32;;;;;;;27.10;14.57;;;6.40;99.90;;;;;;4943183;29;20487;-79
2021/12/17 03:06:19;;;;;;;38.53;12.50;;;6.50;99.90;;;;;;4911477;29;20391;-79
2021/12/17 03:09:04;;;;;;;23.40;12.20;;;6.20;99.90;;;;;;4923370;29;20765;-79
2021/12/17 03:11:50;;;;;;;30.63;13.03;;;6.20;99.90;;;;;;4925311;29;20468;-79
2021/12/17 03:14:46;;;;;;;18.20;10.83;;;6.30;99.90;;;;;;4936838;29;20455;-79
2021/12/17 03:18:03;;;;;;;35.23;13.90;;;6.30;99.90;;;;;;4963943;28;20479;-79
2021/12/17 03:23:43;;;;;;;12.57;9.70;;;6.30;99.90;;;;;;4954588;29;20478;-79
2021/12/17 03:26:30;;;;;;;21.13;13.47;;;6.20;99.90;;;;;;4951194;28;20414;-79
2021/12/17 03:29:14;;;;;;;12.90;8.17;;;6.30;99.90;;;;;;4956140;28;20494;-79
2021/12/17 03:32:00;;;;;;;14.40;9.70;;;6.40;99.90;;;;;;4949458;29;20392;-79
2021/12/17 03:34:46;;;;;;;10.23;7.73;;;6.30;99.90;;;;;;4936588;29;20480;-79
2021/12/17 03:37:31;;;;;;;15.20;7.93;;;5.80;99.90;;;;;;4976846;28;20412;-79
2021/12/17 03:40:18;;;;;;;15.10;10.03;;;5.60;99.90;;;;;;4977612;28;20430;-79
2021/12/17 03:43:11;;;;;;;30.57;8.83;;;5.60;99.90;;;;;;4992839;28;20760;-79
2021/12/17 03:45:57;;;;;;;21.80;7.93;;;5.90;99.90;;;;;;4968363;28;20441;-79
2021/12/17 03:48:43;;;;;;;16.90;8.73;;;6.10;99.90;;;;;;4961694;29;20459;-79
2021/12/17 03:51:27;;;;;;;25.33;9.67;;;6.20;99.90;;;;;;4946604;29;20394;-79
2021/12/17 03:54:12;;;;;;;18.60;9.33;;;6.30;99.90;;;;;;4928814;29;20399;-79
2021/12/17 03:56:56;;;;;;;15.53;8.30;;;6.40;99.90;;;;;;4916899;29;20898;-79
2021/12/17 03:59:41;;;;;;;22.03;8.57;;;6.40;99.90;;;;;;4890770;29;20417;-79
2021/12/17 04:02:25;;;;;;;10.30;9.00;;;6.60;99.90;;;;;;4885931;29;20407;-79
2021/12/17 04:05:12;;;;;;;19.33;11.50;;;6.60;99.90;;;;;;4929222;29;20424;-79
2021/12/17 04:07:59;;;;;;;21.53;9.40;;;6.60;99.90;;;;;;4906728;29;20427;-78
2021/12/17 04:10:48;;;;;;;26.30;10.30;;;6.70;99.90;;;;;;4925054;29;20476;-79
2021/12/17 04:13:38;;;;;;;19.43;9.93;;;6.60;99.90;;;;;;4912805;29;20574;-79
2021/12/17 04:16:27;;;;;;;16.60;9.97;;;6.60;99.90;;;;;;4898510;29;20442;-79
2021/12/17 04:19:12;;;;;;;21.80;9.47;;;6.50;99.90;;;;;;4916650;29;20408;-79
2021/12/17 04:21:57;;;;;;;18.83;9.80;;;6.60;99.90;;;;;;4950488;28;20463;-79
2021/12/17 04:24:41;;;;;;;15.90;9.10;;;6.50;99.90;;;;;;4925537;29;20462;-79
2021/12/17 04:27:25;;;;;;;12.87;7.97;;;6.50;99.90;;;;;;4906386;29;20467;-79
2021/12/17 04:30:10;;;;;;;16.73;9.20;;;6.60;99.90;;;;;;4905550;29;20385;-79
2021/12/17 04:32:57;;;;;;;17.60;7.30;;;6.60;99.90;;;;;;4875171;29;20406;-79
2021/12/17 04:35:41;;;;;;;16.03;8.53;;;6.60;99.90;;;;;;4862309;29;20446;-79
2021/12/17 04:38:28;;;;;;;14.60;6.63;;;6.60;99.90;;;;;;4870697;29;20450;-80
2021/12/17 04:41:45;;;;;;;15.80;8.40;;;6.60;99.90;;;;;;4892085;29;20447;-79
2021/12/17 04:44:36;;;;;;;16.10;6.97;;;6.60;99.90;;;;;;4896071;29;20936;-79
2021/12/17 04:59:17;;;;;;;9.90;7.97;;;6.30;99.90;;;;;;4951408;29;20392;-79
2021/12/17 05:02:03;;;;;;;15.63;6.77;;;6.30;99.90;;;;;;4950884;29;21063;-79
2021/12/17 05:04:47;;;;;;;13.93;8.30;;;6.30;99.90;;;;;;4974016;28;20782;-79
2021/12/17 05:07:34;;;;;;;12.67;7.50;;;6.20;99.90;;;;;;4965944;28;20534;-79
2021/12/17 05:10:45;;;;;;;13.87;6.93;;;6.30;99.90;;;;;;4994408;28;20415;-79
2021/12/17 05:19:39;;;;;;;17.83;6.60;;;6.10;99.90;;;;;;4998757;28;20382;-79
2021/12/17 05:22:27;;;;;;;10.87;6.57;;;6.10;99.90;;;;;;5012735;28;20415;-80
2021/12/17 05:25:12;;;;;;;10.87;7.30;;;6.10;99.90;;;;;;5010106;28;20390;-80
2021/12/17 05:28:02;;;;;;;12.53;7.73;;;6.10;99.90;;;;;;4997443;28;20546;-79
2021/12/17 05:30:47;;;;;;;11.70;7.13;;;6.20;99.90;;;;;;5045127;28;20841;-80
2021/12/17 05:33:31;;;;;;;18.17;7.40;;;6.30;99.90;;;;;;5024436;28;20386;-79
2021/12/17 05:36:16;;;;;;;14.40;8.80;;;6.20;99.90;;;;;;5027184;28;20469;-79
2021/12/17 05:39:02;;;;;;;14.07;8.23;;;6.10;99.90;;;;;;5016908;28;20392;-80
2021/12/17 05:41:46;;;;;;;18.53;7.37;;;6.10;99.90;;;;;;5047197;28;20563;-80
2021/12/17 05:44:33;;;;;;;7.33;6.07;;;6.20;99.90;;;;;;5034383;28;20433;-79
2021/12/17 05:47:18;;;;;;;15.70;7.77;;;6.30;99.90;;;;;;5047941;28;20472;-80
2021/12/17 05:50:02;;;;;;;12.53;7.83;;;6.30;99.90;;;;;;4989514;28;20390;-81
2021/12/17 05:52:49;;;;;;;17.23;8.47;;;6.30;99.90;;;;;;4971764;28;20420;-79
2021/12/17 05:55:56;;;;;;;11.43;8.27;;;6.40;99.90;;;;;;4986354;28;20408;-80
2021/12/17 05:58:40;;;;;;;11.37;7.87;;;6.30;99.90;;;;;;4976729;28;20377;-80
2021/12/17 06:01:24;;;;;;;15.03;9.17;;;6.20;99.90;;;;;;4975221;28;20432;-79
2021/12/17 06:04:09;;;;;;;15.60;9.50;;;6.30;99.90;;;;;;4957878;29;20435;-80
2021/12/17 06:06:55;;;;;;;21.83;8.40;;;6.30;99.90;;;;;;4945016;28;20812;-79
2021/12/17 06:09:39;;;;;;;11.53;8.37;;;6.20;99.90;;;;;;4919901;29;20484;-79
2021/12/17 06:12:25;;;;;;;10.77;8.30;;;6.20;99.90;;;;;;4908676;29;20834;-80
2021/12/17 06:15:13;;;;;;;9.27;7.20;;;6.20;99.90;;;;;;4918163;29;20397;-79
2021/12/17 06:18:00;;;;;;;8.27;6.37;;;6.20;99.90;;;;;;4913322;29;20444;-80
2021/12/17 06:20:44;;;;;;;14.13;7.60;;;6.20;99.90;;;;;;4960237;28;20796;-79
2021/12/17 06:23:28;;;;;;;11.23;7.47;;;6.10;99.90;;;;;;4984533;28;20419;-79
2021/12/17 06:26:12;;;;;;;12.60;8.57;;;6.20;99.90;;;;;;4953447;28;20408;-79
2021/12/17 06:28:57;;;;;;;18.93;7.83;;;6.20;99.90;;;;;;4930338;29;20479;-79
2021/12/17 06:31:44;;;;;;;11.27;8.90;;;6.10;99.90;;;;;;4904020;29;20975;-79
2021/12/17 06:34:31;;;;;;;12.63;8.07;;;6.10;99.90;;;;;;4931846;29;20381;-80
2021/12/17 06:37:36;;;;;;;10.83;7.80;;;6.10;99.90;;;;;;4925153;29;20430;-79
2021/12/17 06:40:20;;;;;;;14.90;8.80;;;6.10;99.90;;;;;;4887175;29;20461;-80
2021/12/17 06:43:05;;;;;;;12.73;9.00;;;6.20;99.90;;;;;;4848062;29;20861;-80
2021/12/17 06:45:59;;;;;;;18.27;8.60;;;6.10;99.90;;;;;;4872690;29;20429;-79
2021/12/17 06:48:46;;;;;;;10.70;7.53;;;5.90;99.90;;;;;;4878526;29;20518;-78
2021/12/17 07:07:08;;;;;;;23.67;8.50;;;5.90;99.90;;;;;;4910367;29;20463;-78
2021/12/17 07:10:30;;;;;;;11.10;6.93;;;6.00;99.90;;;;;;4914536;29;20402;-78
2021/12/17 07:20:30;;;;;;;9.20;7.40;;;6.10;99.90;;;;;;4882566;29;20419;-78
2021/12/17 07:29:41;;;;;;;11.03;7.30;;;6.00;99.90;;;;;;4925982;29;20590;-80
2021/12/17 07:32:18;;;;;;;12.30;7.30;;;6.00;99.90;;;;;;4916400;29;20418;-80
2021/12/17 07:40:58;;;;;;;9.37;5.93;;;5.90;99.90;;;;;;4868933;29;20513;-80
2021/12/17 07:43:53;;;;;;;16.30;8.17;;;5.80;99.90;;;;;;4862362;29;20404;-80
2021/12/17 07:46:40;;;;;;;9.90;6.97;;;5.80;99.90;;;;;;4893530;29;20432;-80
2021/12/17 07:49:29;;;;;;;10.80;7.77;;;5.80;99.90;;;;;;4928654;29;20400;-80
2021/12/17 07:52:14;;;;;;;14.57;8.43;;;5.70;99.90;;;;;;4900094;29;20442;-80
2021/12/17 07:55:20;;;;;;;16.27;8.67;;;5.70;99.90;;;;;;4901748;29;20472;-80
2021/12/17 07:58:04;;;;;;;11.03;8.60;;;5.70;99.90;;;;;;4831035;29;20395;-80
2021/12/17 08:00:49;;;;;;;18.20;9.00;;;5.80;99.90;;;;;;4826964;29;20422;-80
2021/12/17 08:03:37;;;;;;;28.80;9.20;;;5.80;99.90;;;;;;4838428;29;20419;-78
2021/12/17 08:06:42;;;;;;;20.10;8.07;;;5.70;99.90;;;;;;4813843;29;20424;-78
2021/12/17 08:09:28;;;;;;;13.70;6.87;;;5.70;99.90;;;;;;4826874;29;20423;-78
2021/12/17 08:12:12;;;;;;;14.17;7.77;;;5.80;99.90;;;;;;4801529;29;20424;-78
2021/12/17 08:14:57;;;;;;;12.73;8.30;;;5.80;99.90;;;;;;4799071;29;20511;-77
2021/12/17 08:17:48;;;;;;;23.83;7.33;;;5.80;99.90;;;;;;4838052;29;20876;-78
2021/12/17 08:24:45;;;;;;;16.00;7.13;;;5.70;99.90;;;;;;4826477;29;20414;-78
2021/12/17 08:27:23;;;;;;;8.77;6.90;;;5.80;99.90;;;;;;4824687;29;20446;-78
2021/12/17 08:30:37;;;;;;;8.67;6.33;;;5.80;99.90;;;;;;4836963;29;20887;-78
2021/12/17 08:33:33;;;;;;;13.80;7.63;;;5.80;99.90;;;;;;4831001;29;20467;-78
2021/12/17 08:36:19;;;;;;;8.93;6.50;;;5.70;99.90;;;;;;4907955;29;20486;-78
2021/12/17 08:39:06;;;;;;;10.33;6.90;;;5.70;99.90;;;;;;4910916;29;20950;-78
2021/12/17 08:41:52;;;;;;;16.20;6.37;;;5.80;99.90;;;;;;4936495;29;20480;-78
2021/12/17 08:44:38;;;;;;;12.23;7.43;;;5.80;99.90;;;;;;4956627;28;20856;-78
2021/12/17 08:47:24;;;;;;;7.57;6.87;;;5.80;99.90;;;;;;4955164;28;20468;-78
2021/12/17 08:50:28;;;;;;;10.60;6.50;;;5.70;99.90;;;;;;4881021;29;20503;-79
2021/12/17 08:53:33;;;;;;;11.57;6.10;;;5.70;99.90;;;;;;4860682;29;20469;-79
2021/12/17 08:56:20;;;;;;;15.80;5.70;;;5.70;99.90;;;;;;4848925;29;20548;-79
2021/12/17 08:59:08;;;;;;;11.20;8.47;;;5.70;99.90;;;;;;4860461;29;20777;-78
2021/12/17 09:01:52;;;;;;;10.10;5.43;;;5.70;99.90;;;;;;4845734;29;20438;-78
2021/12/17 09:04:36;;;;;;;9.50;6.63;;;5.70;99.90;;;;;;4821031;29;20524;-78
2021/12/17 09:07:21;;;;;;;12.30;6.17;;;5.60;99.90;;;;;;4840319;29;20529;-78
2021/12/17 09:10:06;;;;;;;14.17;6.50;;;5.60;99.90;;;;;;4852156;29;20935;-78
2021/12/17 09:13:11;;;;;;;9.07;5.37;;;5.60;99.90;;;;;;4853095;29;20453;-79
2021/12/17 09:15:57;;;;;;;16.37;8.63;;;5.60;99.90;;;;;;4787822;29;20530;-78
2021/12/17 09:18:42;;;;;;;11.60;8.80;;;5.60;99.90;;;;;;4789621;29;20413;-78
2021/12/17 09:21:28;;;;;;;8.10;5.93;;;5.70;99.90;;;;;;4786657;29;21065;-78
2021/12/17 09:24:12;;;;;;;14.33;7.03;;;5.60;99.90;;;;;;4805465;29;20980;-78
2021/12/17 09:26:56;;;;;;;14.17;8.10;;;5.70;99.90;;;;;;4805026;29;20489;-78
2021/12/17 09:29:41;;;;;;;12.93;6.80;;;5.80;99.90;;;;;;4807570;29;20457;-78
2021/12/17 09:32:28;;;;;;;16.03;8.57;;;5.80;99.90;;;;;;4845293;29;20400;-78
2021/12/17 09:35:13;;;;;;;16.80;8.73;;;5.80;99.90;;;;;;4841642;29;20495;-78
2021/12/17 09:37:58;;;;;;;20.67;9.40;;;5.90;99.90;;;;;;4842968;29;20459;-78
2021/12/17 09:40:42;;;;;;;16.20;6.50;;;5.80;99.90;;;;;;4853053;29;20445;-79
2021/12/17 09:43:30;;;;;;;19.23;8.37;;;5.90;99.90;;;;;;4850224;29;20450;-78
2021/12/17 09:46:35;;;;;;;15.30;8.47;;;5.90;99.90;;;;;;4865650;29;20555;-79
2021/12/17 09:49:19;;;;;;;19.63;8.27;;;5.90;99.90;;;;;;4901976;29;20442;-78
2021/12/17 09:52:05;;;;;;;15.27;7.10;;;5.90;99.90;;;;;;4908295;29;20927;-78
2021/12/17 09:54:52;;;;;;;13.40;6.67;;;5.90;99.90;;;;;;4916234;29;20463;-78
2021/12/17 09:57:36;;;;;;;13.13;6.50;;;5.90;99.90;;;;;;4905380;29;20538;-78
2021/12/17 10:00:25;;;;;;;15.10;9.00;;;5.90;99.90;;;;;;4898856;29;20508;-78
2021/12/17 10:03:09;;;;;;;15.63;7.47;;;5.90;99.90;;;;;;4841234;29;20959;-78
2021/12/17 10:05:54;;;;;;;14.90;9.63;;;5.90;99.90;;;;;;4845135;29;20410;-78
2021/12/17 10:08:47;;;;;;;17.47;9.27;;;5.90;99.90;;;;;;4861195;29;20445;-78
2021/12/17 10:11:31;;;;;;;16.20;9.23;;;6.00;99.90;;;;;;4926012;29;20420;-78
2021/12/17 10:14:18;;;;;;;16.07;7.40;;;6.00;99.90;;;;;;4886914;29;20880;-78
2021/12/17 10:17:09;;;;;;;11.50;6.77;;;6.00;99.90;;;;;;4893689;29;20422;-78
2021/12/17 10:19:54;;;;;;;16.40;8.37;;;6.00;99.90;;;;;;4880398;29;20497;-78
2021/12/17 10:22:44;;;;;;;13.13;5.97;;;5.90;99.90;;;;;;4886225;29;20426;-78
2021/12/17 10:25:29;;;;;;;11.97;7.77;;;5.90;99.90;;;;;;4907778;29;20414;-78
2021/12/17 10:28:14;;;;;;;8.40;6.40;;;5.90;99.90;;;;;;4917098;29;20468;-78
2021/12/17 10:30:58;;;;;;;11.07;8.10;;;5.90;99.90;;;;;;4937089;28;20429;-78
2021/12/17 10:33:50;;;;;;;14.43;9.00;;;5.90;99.90;;;;;;4969539;28;20601;-78
2021/12/17 10:36:39;;;;;;;16.83;8.60;;;5.90;99.90;;;;;;4982237;28;20488;-78
2021/12/17 10:39:30;;;;;;;15.23;8.13;;;5.90;99.90;;;;;;5012842;28;20431;-78
2021/12/17 10:42:17;;;;;;;18.27;9.63;;;5.90;99.90;;;;;;5015656;28;20421;-78
2021/12/17 10:45:10;;;;;;;11.27;8.23;;;6.00;99.90;;;;;;4960771;28;20416;-78
2021/12/17 10:51:20;;;;;;;10.13;6.10;;;5.80;99.90;;;;;;4946858;28;20480;-79
2021/12/17 10:54:09;;;;;;;14.07;7.83;;;5.80;99.90;;;;;;4943240;29;20455;-78
2021/12/17 10:56:54;;;;;;;15.77;8.60;;;5.80;99.90;;;;;;4943944;29;20480;-78
2021/12/17 10:59:45;;;;;;;11.57;6.90;;;5.80;99.90;;;;;;4927824;29;20993;-77
2021/12/17 11:02:33;;;;;;;17.30;7.00;;;5.80;99.90;;;;;;4938045;29;20424;-79
2021/12/17 11:05:18;;;;;;;15.97;7.83;;;5.90;99.90;;;;;;4940258;29;20895;-79
2021/12/17 11:08:24;;;;;;;9.83;6.87;;;5.90;99.90;;;;;;4949683;29;20461;-78
2021/12/17 11:11:10;;;;;;;13.03;7.27;;;6.00;99.90;;;;;;4944575;29;20429;-78
2021/12/17 11:13:57;;;;;;;10.93;5.33;;;6.10;99.90;;;;;;4945035;29;20483;-78
2021/12/17 11:16:41;;;;;;;11.90;6.70;;;6.10;99.90;;;;;;4997344;28;20439;-79
2021/12/17 11:19:26;;;;;;;13.17;7.83;;;6.10;99.90;;;;;;5035713;28;20538;-78
2021/12/17 11:22:10;;;;;;;14.87;8.27;;;6.20;99.90;;;;;;5033353;28;20436;-79
2021/12/17 11:24:56;;;;;;;11.40;5.83;;;6.20;99.90;;;;;;5043542;28;20407;-78
2021/12/17 11:27:41;;;;;;;11.53;6.60;;;6.30;99.90;;;;;;5069475;28;20569;-79
2021/12/17 11:30:29;;;;;;;8.83;5.60;;;6.30;99.90;;;;;;5076301;28;20439;-79
2021/12/17 11:33:14;;;;;;;7.87;6.30;;;6.30;99.90;;;;;;5071764;28;20500;-78
2021/12/17 11:35:58;;;;;;;7.87;6.00;;;6.30;99.90;;;;;;5084261;28;20414;-79
2021/12/17 11:38:56;;;;;;;12.73;8.77;;;6.30;99.90;;;;;;5078367;28;20424;-80
2021/12/17 11:41:59;;;;;;;10.90;7.07;;;6.40;99.90;;;;;;5053153;28;20535;-80
2021/12/17 11:44:52;;;;;;;11.13;7.00;;;6.40;99.90;;;;;;5020591;28;20418;-79
2021/12/17 11:47:37;;;;;;;13.93;7.73;;;6.50;99.90;;;;;;5006708;28;20494;-79
2021/12/17 11:50:21;;;;;;;14.10;7.07;;;6.60;99.90;;;;;;5013905;28;20533;-79
2021/12/17 11:53:22;;;;;;;11.70;7.23;;;6.60;99.90;;;;;;5004429;28;20413;-79
2021/12/17 11:56:06;;;;;;;14.70;8.03;;;6.70;99.90;;;;;;5008240;28;21016;-80
2021/12/17 11:58:53;;;;;;;13.13;9.53;;;6.70;99.90;;;;;;5015401;28;20417;-80
2021/12/17 12:02:03;;;;;;;13.27;8.20;;;6.70;99.90;;;;;;5015947;28;20425;-79
2021/12/17 12:04:52;;;;;;;11.10;9.47;;;6.70;99.90;;;;;;4979978;28;20505;-78
2021/12/17 12:07:37;;;;;;;9.90;8.47;;;6.70;99.90;;;;;;5014617;28;20449;-78
2021/12/17 12:10:22;;;;;;;11.63;8.23;;;6.70;99.90;;;;;;5011150;28;20463;-80
2021/12/17 12:13:06;;;;;;;12.97;8.60;;;6.80;99.90;;;;;;5019298;28;20438;-79
2021/12/17 12:16:02;;;;;;;9.67;8.37;;;6.80;99.90;;;;;;5043574;28;20518;-79
2021/12/17 12:18:50;;;;;;;10.00;7.20;;;6.80;99.90;;;;;;5067824;28;20400;-79
2021/12/17 12:21:37;;;;;;;13.80;7.43;;;6.70;99.90;;;;;;5068812;28;20475;-79
2021/12/17 12:24:22;;;;;;;11.10;7.80;;;6.70;99.90;;;;;;5044198;28;20441;-79
2021/12/17 12:27:35;;;;;;;11.60;8.17;;;6.70;99.90;;;;;;5071599;28;20473;-80
2021/12/17 12:30:34;;;;;;;10.13;7.30;;;6.80;99.90;;;;;;5051489;28;20417;-78
2021/12/17 12:33:20;;;;;;;15.03;9.30;;;6.80;99.90;;;;;;5075524;28;20759;-78
2021/12/17 12:36:04;;;;;;;14.67;9.97;;;6.80;99.90;;;;;;5061937;28;20422;-79
2021/12/17 12:39:12;;;;;;;14.57;9.57;;;6.50;99.90;;;;;;5062777;28;20437;-80
2021/12/17 12:42:06;;;;;;;11.40;7.50;;;6.70;99.90;;;;;;5081552;28;20806;-79
2021/12/17 12:45:12;;;;;;;11.57;10.00;;;6.80;99.90;;;;;;5071330;28;20494;-79
2021/12/17 12:47:59;;;;;;;12.20;9.13;;;6.90;99.90;;;;;;5076620;28;20464;-79
2021/12/17 12:50:44;;;;;;;9.90;7.27;;;6.90;99.90;;;;;;5092722;28;20395;-79
2021/12/17 12:53:29;;;;;;;12.80;10.40;;;6.80;99.90;;;;;;5076406;28;20419;-79
2021/12/17 12:56:19;;;;;;;12.83;9.50;;;6.70;99.90;;;;;;5093491;28;20400;-79
2021/12/17 12:59:06;;;;;;;14.30;8.80;;;6.70;99.90;;;;;;5086805;28;20395;-79
2021/12/17 13:01:51;;;;;;;14.07;9.50;;;6.60;99.90;;;;;;5078923;28;20412;-80
2021/12/17 13:04:37;;;;;;;11.53;8.47;;;6.70;99.90;;;;;;5091246;28;20424;-80
2021/12/17 13:07:36;;;;;;;10.90;8.40;;;6.40;99.90;;;;;;5072492;28;20471;-78
2021/12/17 13:10:24;;;;;;;20.20;9.10;;;6.70;99.90;;;;;;5088653;28;20415;-78
2021/12/17 13:16:19;;;;;;;17.87;10.40;;;6.50;99.90;;;;;;5097003;28;20423;-79
2021/12/17 13:22:28;;;;;;;10.03;6.97;;;6.80;99.90;;;;;;5088559;28;20426;-79
2021/12/17 13:25:23;;;;;;;10.60;7.97;;;6.80;99.90;;;;;;5066841;28;20423;-78
2021/12/17 13:28:07;;;;;;;7.00;5.90;;;6.90;99.90;;;;;;5078887;28;20430;-79
2021/12/17 13:30:56;;;;;;;9.47;7.50;;;6.90;99.90;;;;;;5090318;28;20791;-79
2021/12/17 13:33:40;;;;;;;8.80;7.13;;;6.80;99.90;;;;;;5074606;28;20729;-79
2021/12/17 13:36:24;;;;;;;10.13;6.90;;;6.90;99.90;;;;;;5086276;28;20383;-79
2021/12/17 13:39:11;;;;;;;7.93;6.90;;;7.10;99.90;;;;;;5066285;28;20460;-79
2021/12/17 13:41:56;;;;;;;7.93;7.13;;;7.10;99.90;;;;;;5081250;28;20442;-80
2021/12/17 13:44:46;;;;;;;9.93;7.17;;;7.20;99.90;;;;;;5084814;28;20415;-79
2021/12/17 13:47:41;;;;;;;12.70;8.23;;;7.30;99.90;;;;;;5060861;28;20540;-80
2021/12/17 13:50:28;;;;;;;6.10;5.57;;;7.30;99.90;;;;;;5087475;28;20483;-81
2021/12/17 13:53:15;;;;;;;7.60;6.80;;;7.40;99.90;;;;;;5067878;28;20440;-79
2021/12/17 13:56:00;;;;;;;9.43;6.67;;;7.50;99.90;;;;;;5073520;28;20427;-80
2021/12/17 13:58:46;;;;;;;8.50;6.90;;;7.50;99.90;;;;;;5083520;28;20645;-80
2021/12/17 14:01:36;;;;;;;10.93;6.80;;;7.20;99.90;;;;;;5060595;28;20449;-80
2021/12/17 14:04:22;;;;;;;6.60;5.80;;;7.10;99.90;;;;;;5082639;28;20400;-80
2021/12/17 14:07:09;;;;;;;7.27;6.57;;;7.30;99.90;;;;;;5084695;28;20498;-80
2021/12/17 14:09:58;;;;;;;7.30;5.70;;;7.30;99.90;;;;;;5083341;28;20428;-80
2021/12/17 14:12:43;;;;;;;7.00;5.20;;;7.30;99.90;;;;;;5083992;28;20404;-80
2021/12/17 14:15:30;;;;;;;6.77;6.17;;;7.20;99.90;;;;;;5083535;28;20536;-79
2021/12/17 14:18:17;;;;;;;7.50;5.53;;;7.20;99.90;;;;;;5077171;28;20406;-79
2021/12/17 14:21:04;;;;;;;6.63;4.93;;;7.20;99.90;;;;;;5077516;28;20557;-80
2021/12/17 14:23:48;;;;;;;6.00;5.40;;;7.10;99.90;;;;;;5081247;28;20440;-80
2021/12/17 14:26:33;;;;;;;8.83;6.73;;;7.10;99.90;;;;;;5083467;28;20950;-79
2021/12/17 14:29:17;;;;;;;10.83;6.20;;;6.90;99.90;;;;;;5081942;28;20403;-81
2021/12/17 14:32:02;;;;;;;6.90;5.00;;;6.90;99.90;;;;;;5081894;28;20470;-80
2021/12/17 14:34:46;;;;;;;6.73;5.37;;;6.90;99.90;;;;;;5087702;28;20466;-79
2021/12/17 14:37:47;;;;;;;8.73;6.37;;;6.80;99.90;;;;;;5075998;28;20430;-78
2021/12/17 14:40:47;;;;;;;7.67;6.73;;;6.80;99.90;;;;;;5080644;28;20582;-79
2021/12/17 14:43:44;;;;;;;9.23;7.60;;;6.80;99.90;;;;;;5090464;28;20407;-79
2021/12/17 14:46:46;;;;;;;9.10;7.00;;;6.80;99.90;;;;;;5082845;28;20501;-79
2021/12/17 15:00:02;;;;;;;13.50;8.00;;;6.60;99.90;;;;;;5068080;28;20433;-79
2021/12/17 15:02:02;;;;;;;10.50;7.63;;;6.50;99.90;;;;;;5075080;28;20426;-79
2021/12/17 15:04:46;;;;;;;21.30;11.70;;;6.50;99.90;;;;;;5078527;28;20428;-80
2021/12/17 15:07:30;;;;;;;17.40;11.30;;;6.40;99.90;;;;;;5073125;28;20441;-80
2021/12/17 15:10:16;;;;;;;18.37;11.60;;;6.40;99.90;;;;;;5051196;28;20428;-80
2021/12/17 15:13:01;;;;;;;27.60;11.63;;;6.20;99.90;;;;;;5077280;28;20487;-79
2021/12/17 15:15:45;;;;;;;14.53;9.17;;;5.90;99.90;;;;;;5064316;28;20394;-80
2021/12/17 15:18:29;;;;;;;12.27;9.00;;;5.90;99.90;;;;;;5073360;28;20429;-81
2021/12/17 15:21:13;;;;;;;22.40;12.67;;;5.60;99.90;;;;;;5069741;28;20435;-81
2021/12/17 15:23:57;;;;;;;24.47;10.13;;;5.70;99.90;;;;;;5076584;28;20511;-82
2021/12/17 15:26:41;;;;;;;10.80;7.70;;;5.80;99.90;;;;;;5068623;28;20400;-81
2021/12/17 15:29:25;;;;;;;14.77;9.67;;;5.80;99.90;;;;;;5065750;28;20448;-81
2021/12/17 15:32:10;;;;;;;12.03;9.00;;;5.40;99.90;;;;;;5077271;28;20428;-81
2021/12/17 15:34:54;;;;;;;13.10;7.90;;;5.20;99.90;;;;;;5078710;28;20384;-81
2021/12/17 15:37:40;;;;;;;12.90;8.90;;;5.00;99.90;;;;;;5079465;28;20803;-81
2021/12/17 15:40:24;;;;;;;11.07;8.37;;;5.00;99.90;;;;;;5080326;28;20436;-80
2021/12/17 15:43:10;;;;;;;13.73;8.17;;;4.80;99.90;;;;;;5079537;28;20525;-81
2021/12/17 15:45:54;;;;;;;13.63;9.80;;;4.60;99.90;;;;;;5078199;28;20475;-81
2021/12/17 15:48:38;;;;;;;11.43;8.37;;;4.60;99.90;;;;;;5076649;28;20463;-81
2021/12/17 15:51:22;;;;;;;12.50;8.60;;;4.60;99.90;;;;;;5076995;28;20454;-81
2021/12/17 15:54:09;;;;;;;13.10;9.40;;;4.60;99.90;;;;;;5038687;28;20460;-81
2021/12/17 15:56:53;;;;;;;14.00;9.93;;;4.60;99.90;;;;;;5044620;28;20559;-78
2021/12/17 15:59:38;;;;;;;19.10;9.80;;;4.80;99.90;;;;;;5058067;28;20402;-80
2021/12/17 16:02:22;;;;;;;18.43;9.97;;;4.70;99.90;;;;;;5049352;28;21182;-80
2021/12/17 16:05:09;;;;;;;16.00;12.37;;;4.50;99.90;;;;;;5067516;28;20447;-80
2021/12/17 16:07:54;;;;;;;18.10;11.27;;;4.70;99.90;;;;;;5067790;28;20806;-80
2021/12/17 16:22:42;;;;;;;13.93;10.60;;;4.40;99.90;;;;;;5063454;28;20491;-80
2021/12/17 16:25:26;;;;;;;12.17;8.67;;;4.30;99.90;;;;;;5066030;28;20466;-80
2021/12/17 16:28:10;;;;;;;15.60;10.10;;;4.20;99.90;;;;;;5048239;28;20477;-80
2021/12/17 16:31:10;;;;;;;21.53;8.67;;;4.20;99.90;;;;;;5057563;28;20392;-80
2021/12/17 16:34:02;;;;;;;12.77;9.17;;;4.10;99.90;;;;;;5061628;28;20417;-80
2021/12/17 16:36:46;;;;;;;13.00;9.60;;;4.00;99.90;;;;;;5058479;28;20491;-80
2021/12/17 16:39:31;;;;;;;22.10;10.23;;;3.90;99.90;;;;;;5050434;28;20454;-80
2021/12/17 16:42:17;;;;;;;8.30;6.80;;;3.90;99.90;;;;;;5042275;28;20487;-80
2021/12/17 16:45:19;;;;;;;15.40;10.47;;;3.60;99.90;;;;;;5047316;28;20489;-80
2021/12/17 16:48:06;;;;;;;17.00;11.70;;;3.70;99.90;;;;;;5074409;28;20476;-81
2021/12/17 16:50:51;;;;;;;22.73;13.40;;;3.70;99.90;;;;;;5076223;28;20420;-80
2021/12/17 16:53:36;;;;;;;28.83;13.70;;;3.80;99.90;;;;;;5043069;28;20436;-80
2021/12/17 16:56:20;;;;;;;20.57;12.37;;;3.70;99.90;;;;;;5068871;28;20478;-80
2021/12/17 16:59:04;;;;;;;19.87;12.50;;;3.60;99.90;;;;;;5074488;28;20435;-81
2021/12/17 17:01:48;;;;;;;20.70;11.50;;;3.40;99.90;;;;;;5072616;28;20590;-81
2021/12/17 17:04:33;;;;;;;12.73;9.40;;;3.40;99.90;;;;;;5068378;28;20449;-80
2021/12/17 17:07:17;;;;;;;20.47;11.80;;;3.40;99.90;;;;;;5065344;28;20441;-80
2021/12/17 17:10:02;;;;;;;14.50;9.20;;;3.20;99.90;;;;;;5066205;28;20384;-81
2021/12/17 17:12:49;;;;;;;15.10;9.17;;;3.10;99.90;;;;;;5064641;28;20390;-79
2021/12/17 17:15:35;;;;;;;13.53;9.90;;;3.10;99.90;;;;;;5085629;28;20371;-80